createdAt,value
2022-09-10T00:02:11.501Z,91.99
2022-09-10T00:04:39.176Z,91.78
2022-09-10T00:07:06.800Z,91.75
2022-09-10T00:09:34.621Z,92.67
2022-09-10T00:12:02.412Z,92.57
2022-09-10T00:14:29.989Z,92.38
2022-09-10T00:16:58.973Z,92.28
2022-09-10T00:19:26.599Z,91.87
2022-09-10T00:21:54.242Z,91.80
2022-09-10T00:24:22.483Z,91.64
2022-09-10T00:26:50.095Z,91.10
2022-09-10T00:29:18.694Z,89.57
2022-09-10T00:31:46.475Z,88.36
2022-09-10T00:34:15.602Z,88.12
2022-09-10T00:36:44.913Z,87.40
2022-09-10T00:39:15.697Z,86.18
2022-09-10T00:41:46.536Z,86.14
2022-09-10T00:44:56.689Z,86.50
2022-09-10T00:47:29.830Z,86.73
2022-09-10T00:50:06.035Z,87.19
2022-09-10T00:52:39.407Z,86.56
2022-09-10T00:55:09.032Z,85.12
2022-09-10T00:57:37.145Z,85.18
2022-09-10T01:00:11.822Z,86.11
2022-09-10T01:02:39.700Z,85.82
2022-09-10T01:05:10.733Z,84.57
2022-09-10T01:07:39.020Z,83.03
2022-09-10T01:10:12.611Z,82.41
2022-09-10T01:12:57.855Z,82.45
2022-09-10T01:15:36.358Z,81.89
2022-09-10T01:18:16.017Z,81.66
2022-09-10T01:20:59.428Z,81.30
2022-09-10T01:24:00.899Z,81.71
2022-09-10T01:26:52.134Z,82.23
2022-09-10T01:29:25.358Z,84.29
2022-09-10T01:31:57.820Z,84.46
2022-09-10T01:34:30.479Z,84.73
2022-09-10T01:37:05.429Z,84.94
2022-09-10T01:39:34.018Z,85.55
2022-09-10T01:42:01.729Z,85.63
2022-09-10T01:44:49.568Z,85.84
2022-09-10T01:47:27.826Z,85.99
2022-09-10T01:50:10.282Z,86.20
2022-09-10T01:52:47.799Z,85.03
2022-09-10T01:55:31.651Z,83.53
2022-09-10T01:58:14.101Z,83.47
2022-09-10T02:00:49.949Z,83.13
2022-09-10T02:03:21.570Z,81.82
2022-09-10T02:05:53.829Z,81.56
2022-09-10T02:08:25.383Z,81.82
2022-09-10T02:10:56.523Z,83.87
2022-09-10T02:13:25.139Z,84.57
2022-09-10T02:15:54.636Z,85.27
2022-09-10T02:18:23.033Z,86.37
2022-09-10T02:20:53.112Z,86.96
2022-09-10T02:23:26.035Z,86.81
2022-09-10T02:25:54.066Z,87.29
2022-09-10T02:28:21.714Z,87.88
2022-09-10T02:30:49.337Z,87.66
2022-09-10T02:33:18.408Z,87.63
2022-09-10T02:35:47.727Z,88.14
2022-09-10T02:38:16.454Z,88.08
2022-09-10T02:40:44.154Z,87.75
2022-09-10T02:43:11.721Z,87.82
2022-09-10T02:45:40.087Z,88.08
2022-09-10T02:48:07.967Z,87.83
2022-09-10T02:50:37.630Z,88.36
2022-09-10T02:53:05.337Z,88.60
2022-09-10T02:55:32.984Z,88.88
2022-09-10T02:58:00.541Z,88.80
2022-09-10T03:00:28.144Z,88.88
2022-09-10T03:03:00.873Z,88.78
2022-09-10T03:05:30.553Z,88.37
2022-09-10T03:08:00.316Z,87.70
2022-09-10T03:10:28.276Z,88.16
2022-09-10T03:12:55.850Z,88.02
2022-09-10T03:15:23.502Z,88.99
2022-09-10T03:17:51.310Z,88.87
2022-09-10T03:20:19.178Z,89.53
2022-09-10T03:22:47.605Z,90.11
2022-09-10T03:25:17.158Z,89.85
2022-09-10T03:27:44.725Z,90.39
2022-09-10T03:30:13.056Z,90.58
2022-09-10T03:32:40.868Z,90.90
2022-09-10T03:35:10.088Z,91.46
2022-09-10T03:37:37.726Z,91.33
2022-09-10T03:40:06.985Z,91.88
2022-09-10T03:42:36.291Z,91.41
2022-09-10T03:45:03.896Z,91.28
2022-09-10T03:47:31.509Z,92.51
2022-09-10T03:49:59.915Z,91.97
2022-09-10T03:52:27.669Z,92.30
2022-09-10T03:54:55.265Z,92.58
2022-09-10T03:57:23.277Z,92.45
2022-09-10T03:59:52.583Z,92.07
2022-09-10T04:02:20.252Z,92.11
2022-09-10T04:04:47.915Z,92.02
2022-09-10T04:07:15.515Z,92.80
2022-09-10T04:09:43.132Z,92.45
2022-09-10T04:12:10.791Z,93.01
2022-09-10T04:14:38.424Z,93.48
2022-09-10T04:17:07.341Z,93.50
2022-09-10T04:19:35.364Z,92.67
2022-09-10T04:22:03.027Z,92.82
2022-09-10T04:24:30.577Z,93.04
2022-09-10T04:26:59.026Z,93.32
2022-09-10T04:29:26.641Z,93.81
2022-09-10T04:31:55.207Z,93.70
2022-09-10T04:34:24.252Z,94.14
2022-09-10T04:36:53.504Z,94.34
2022-09-10T04:39:21.250Z,93.53
2022-09-10T04:41:48.834Z,93.58
2022-09-10T04:44:20.087Z,93.38
2022-09-10T04:46:48.263Z,93.49
2022-09-10T04:49:15.827Z,93.09
2022-09-10T04:51:44.753Z,93.35
2022-09-10T04:54:14.414Z,93.12
2022-09-10T04:56:42.109Z,94.20
2022-09-10T04:59:10.766Z,94.29
2022-09-10T05:01:38.398Z,94.38
2022-09-10T05:04:06.118Z,93.85
2022-09-10T05:06:33.699Z,94.01
2022-09-10T05:09:03.371Z,94.47
2022-09-10T05:11:31.343Z,94.76
2022-09-10T05:13:59.064Z,94.37
2022-09-10T05:16:26.641Z,94.46
2022-09-10T05:18:54.370Z,94.67
2022-09-10T05:21:22.637Z,95.02
2022-09-10T05:23:50.207Z,95.16
2022-09-10T05:26:19.119Z,95.54
2022-09-10T05:28:47.663Z,95.31
2022-09-10T05:31:16.509Z,95.50
2022-09-10T05:33:44.241Z,95.64
2022-09-10T05:36:11.791Z,95.48
2022-09-10T05:38:40.301Z,95.33
2022-09-10T05:41:10.392Z,95.54
2022-09-10T05:43:40.278Z,95.73
2022-09-10T05:46:08.139Z,95.42
2022-09-10T05:48:39.634Z,95.67
2022-09-10T05:51:09.303Z,96.05
2022-09-10T05:53:38.156Z,96.04
2022-09-10T05:56:07.276Z,95.88
2022-09-10T05:58:34.925Z,96.42
2022-09-10T06:01:03.876Z,97.00
2022-09-10T06:03:31.581Z,96.86
2022-09-10T06:05:59.154Z,96.77
2022-09-10T06:08:26.740Z,96.11
2022-09-10T06:10:58.493Z,96.85
2022-09-10T06:13:26.286Z,96.72
2022-09-10T06:15:54.316Z,97.00
2022-09-10T06:18:23.282Z,96.60
2022-09-10T06:20:51.020Z,96.74
2022-09-10T06:23:18.886Z,96.17
2022-09-10T06:25:48.332Z,95.53
2022-09-10T06:28:16.022Z,96.06
2022-09-10T06:30:45.824Z,96.32
2022-09-10T06:33:13.995Z,96.20
2022-09-10T06:35:42.998Z,96.10
2022-09-10T06:38:10.596Z,96.55
2022-09-10T06:40:38.165Z,95.97
2022-09-10T06:43:06.036Z,96.34
2022-09-10T06:45:33.679Z,95.71
2022-09-10T06:50:54.942Z,95.75
2022-09-10T06:53:23.735Z,95.83
2022-09-10T06:55:52.306Z,95.25
2022-09-10T06:58:21.741Z,94.92
2022-09-10T07:00:49.955Z,94.97
2022-09-10T07:03:18.478Z,94.53
2022-09-10T07:05:47.231Z,93.65
2022-09-10T07:08:17.706Z,92.84
2022-09-10T07:10:46.424Z,92.57
2022-09-10T07:13:14.536Z,92.64
2022-09-10T07:15:46.377Z,93.14
2022-09-10T07:18:15.331Z,93.11
2022-09-10T07:20:43.348Z,92.81
2022-09-10T07:23:12.893Z,93.08
2022-09-10T07:25:42.658Z,93.58
2022-09-10T07:28:13.548Z,93.45
2022-09-10T07:30:41.890Z,93.17
2022-09-10T07:33:11.091Z,93.66
2022-09-10T07:35:39.495Z,93.38
2022-09-10T07:38:07.949Z,93.74
2022-09-10T07:40:35.928Z,93.45
2022-09-10T07:43:04.868Z,93.12
2022-09-10T07:45:32.542Z,92.46
2022-09-10T07:48:00.452Z,92.04
2022-09-10T07:50:28.757Z,91.77
2022-09-10T07:52:56.335Z,90.72
2022-09-10T07:55:24.288Z,90.34
2022-09-10T07:57:51.864Z,89.74
2022-09-10T08:00:21.039Z,89.27
2022-09-10T08:02:48.805Z,88.21
2022-09-10T08:05:16.861Z,86.53
2022-09-10T08:07:44.457Z,86.57
2022-09-10T08:10:13.382Z,86.50
2022-09-10T08:12:42.024Z,86.18
2022-09-10T08:15:11.097Z,84.73
2022-09-10T08:17:40.086Z,84.08
2022-09-10T08:20:09.853Z,83.93
2022-09-10T08:22:37.431Z,84.08
2022-09-10T08:25:05.863Z,84.54
2022-09-10T08:27:34.261Z,83.90
2022-09-10T08:30:01.815Z,83.54
2022-09-10T08:32:29.457Z,83.31
2022-09-10T08:34:58.343Z,83.86
2022-09-10T08:37:25.993Z,82.25
2022-09-10T08:39:53.733Z,80.01
2022-09-10T08:42:26.864Z,79.11
2022-09-10T08:45:00.212Z,78.89
2022-09-10T08:47:33.349Z,78.66
2022-09-10T08:50:11.101Z,78.01
2022-09-10T08:52:44.973Z,77.51
2022-09-10T08:55:24.387Z,76.84
2022-09-10T08:57:57.009Z,75.87
2022-09-10T09:00:27.102Z,75.71
2022-09-10T09:02:59.851Z,75.57
2022-09-10T09:05:31.665Z,75.22
2022-09-10T09:07:59.593Z,74.62
2022-09-10T09:10:34.815Z,75.23
2022-09-10T09:13:22.890Z,75.79
2022-09-10T09:15:58.229Z,74.85
2022-09-10T09:18:35.841Z,75.49
2022-09-10T09:21:16.575Z,75.04
2022-09-10T09:24:12.269Z,75.11
2022-09-10T09:26:46.176Z,73.57
2022-09-10T09:29:18.006Z,73.88
2022-09-10T09:31:49.982Z,73.96
2022-09-10T09:34:21.944Z,74.15
2022-09-10T09:36:54.885Z,74.89
2022-09-10T09:39:26.327Z,74.85
2022-09-10T09:42:03.223Z,75.43
2022-09-10T09:44:38.743Z,75.22
2022-09-10T09:47:06.386Z,74.98
2022-09-10T09:49:34.072Z,75.39
2022-09-10T09:52:15.084Z,74.74
2022-09-10T09:55:13.382Z,74.40
2022-09-10T09:57:36.273Z,74.81
2022-09-10T10:00:35.984Z,74.82
2022-09-10T10:03:14.077Z,74.71
2022-09-10T10:05:42.358Z,73.47
2022-09-10T10:08:30.239Z,73.07
2022-09-10T10:10:58.502Z,73.76
2022-09-10T10:13:26.205Z,74.63
2022-09-10T10:15:54.091Z,74.92
2022-09-10T10:18:32.674Z,74.57
2022-09-10T10:21:31.009Z,75.35
2022-09-10T10:24:00.880Z,75.39
2022-09-10T10:26:33.640Z,75.51
2022-09-10T10:29:04.095Z,75.35
2022-09-10T10:31:41.277Z,74.58
2022-09-10T10:34:30.850Z,74.42
2022-09-10T10:37:08.370Z,74.43
2022-09-10T10:39:52.360Z,74.08
2022-09-10T10:42:24.137Z,74.16
2022-09-10T10:45:02.770Z,73.38
2022-09-10T10:47:45.448Z,73.57
2022-09-10T10:50:26.471Z,73.11
2022-09-10T10:53:14.511Z,73.77
2022-09-10T10:55:48.286Z,74.36
2022-09-10T10:58:30.296Z,74.56
2022-09-10T11:01:03.323Z,74.88
2022-09-10T11:03:36.592Z,74.39
2022-09-10T11:06:09.352Z,74.32
2022-09-10T11:08:42.439Z,73.32
2022-09-10T11:11:18.477Z,73.15
2022-09-10T11:13:52.201Z,72.96
2022-09-10T11:16:23.929Z,72.76
2022-09-10T11:18:55.069Z,72.31
2022-09-10T11:21:29.718Z,71.38
2022-09-10T11:24:02.634Z,71.12
2022-09-10T11:26:37.732Z,70.30
2022-09-10T11:29:22.241Z,70.08
2022-09-10T11:31:59.156Z,70.27
2022-09-10T11:34:32.636Z,70.42
2022-09-10T11:37:06.140Z,70.36
2022-09-10T11:39:36.428Z,69.53
2022-09-10T11:42:15.971Z,69.34
2022-09-10T11:44:55.964Z,68.45
2022-09-10T11:47:27.734Z,67.67
2022-09-10T11:50:01.193Z,67.25
2022-09-10T11:52:30.893Z,67.62
2022-09-10T11:54:59.410Z,68.38
2022-09-10T11:57:41.226Z,68.71
2022-09-10T12:00:16.925Z,68.58
2022-09-10T12:03:36.200Z,68.30
2022-09-10T12:06:08.084Z,69.54
2022-09-10T12:08:57.159Z,69.52
2022-09-10T12:11:32.078Z,70.03
2022-09-10T12:14:06.168Z,70.54
2022-09-10T12:16:39.319Z,71.37
2022-09-10T12:19:17.643Z,71.72
2022-09-10T12:21:52.275Z,71.12
2022-09-10T12:24:27.845Z,70.55
2022-09-10T12:26:56.425Z,69.13
2022-09-10T12:29:36.810Z,66.88
2022-09-10T12:32:29.775Z,65.30
2022-09-10T12:35:43.787Z,64.88
2022-09-10T12:38:48.731Z,65.27
2022-09-10T12:41:49.731Z,65.67
2022-09-10T12:44:49.431Z,65.79
2022-09-10T12:47:52.366Z,65.94
2022-09-10T12:50:46.176Z,66.14
2022-09-10T12:53:51.489Z,66.28
2022-09-10T12:56:40.654Z,66.18
2022-09-10T12:59:23.144Z,66.12
2022-09-10T13:01:52.948Z,66.07
2022-09-10T13:04:28.502Z,66.64
2022-09-10T13:07:00.038Z,66.61
2022-09-10T13:09:31.100Z,66.31
2022-09-10T13:12:04.512Z,65.28
2022-09-10T13:14:36.695Z,65.12
2022-09-10T13:17:06.391Z,65.60
2022-09-10T13:19:51.977Z,64.99
2022-09-10T13:22:53.272Z,65.15
2022-09-10T13:25:27.267Z,65.41
2022-09-10T13:27:55.312Z,65.36
2022-09-10T13:30:24.072Z,66.15
2022-09-10T13:32:56.693Z,66.29
2022-09-10T13:36:02.171Z,65.51
2022-09-10T13:38:53.969Z,64.84
2022-09-10T13:41:59.924Z,65.23
2022-09-10T13:44:53.621Z,65.18
2022-09-10T13:47:25.485Z,65.60
2022-09-10T13:49:59.341Z,65.14
2022-09-10T13:52:32.574Z,65.67
2022-09-10T13:55:01.691Z,65.45
2022-09-10T13:57:33.305Z,64.30
2022-09-10T14:00:07.011Z,63.60
2022-09-10T14:02:41.716Z,63.89
2022-09-10T14:05:30.627Z,65.22
2022-09-10T14:08:02.957Z,65.06
2022-09-10T14:10:32.196Z,65.02
2022-09-10T14:13:00.582Z,65.02
2022-09-10T14:15:34.019Z,64.86
2022-09-10T14:18:02.154Z,65.18
2022-09-10T14:20:34.336Z,65.53
2022-09-10T14:23:03.991Z,65.93
2022-09-10T14:25:33.799Z,65.68
2022-09-10T14:28:21.766Z,65.08
2022-09-10T14:30:50.663Z,63.96
2022-09-10T14:33:30.769Z,64.09
2022-09-10T14:36:14.531Z,64.55
2022-09-10T14:38:42.429Z,64.46
2022-09-10T14:41:19.791Z,65.02
2022-09-10T14:43:47.937Z,64.44
2022-09-10T14:46:49.843Z,63.77
2022-09-10T14:49:19.200Z,63.38
2022-09-10T14:51:48.166Z,63.73
2022-09-10T14:54:15.810Z,63.75
2022-09-10T14:56:46.051Z,63.91
2022-09-10T14:59:16.546Z,63.59
2022-09-10T15:01:45.854Z,64.36
2022-09-10T15:04:15.788Z,65.10
2022-09-10T15:06:44.931Z,64.99
2022-09-10T15:09:15.038Z,64.86
2022-09-10T15:11:50.587Z,65.29
2022-09-10T15:14:20.010Z,65.48
2022-09-10T15:16:48.231Z,65.46
2022-09-10T15:19:17.129Z,65.73
2022-09-10T15:21:44.776Z,65.58
2022-09-10T15:24:15.858Z,66.01
2022-09-10T15:26:43.892Z,65.71
2022-09-10T15:29:11.854Z,65.34
2022-09-10T15:31:40.228Z,64.92
2022-09-10T15:34:09.377Z,64.58
2022-09-10T15:36:39.836Z,63.83
2022-09-10T15:39:08.082Z,63.94
2022-09-10T15:41:42.566Z,64.39
2022-09-10T15:44:10.421Z,64.35
2022-09-10T15:46:45.097Z,64.44
2022-09-10T15:49:12.813Z,65.14
2022-09-10T15:51:41.240Z,65.19
2022-09-10T15:54:11.360Z,65.51
2022-09-10T15:56:40.999Z,65.57
2022-09-10T15:59:12.506Z,65.93
2022-09-10T16:01:40.189Z,65.91
2022-09-10T16:04:08.182Z,65.94
2022-09-10T16:06:39.196Z,66.09
2022-09-10T16:09:09.639Z,66.23
2022-09-10T16:11:40.763Z,66.35
2022-09-10T16:14:11.597Z,66.79
2022-09-10T16:16:40.837Z,67.06
2022-09-10T16:19:09.175Z,66.91
2022-09-10T16:21:39.213Z,66.05
2022-09-10T16:24:07.892Z,66.00
2022-09-10T16:26:37.342Z,66.10
2022-09-10T16:29:08.143Z,65.84
2022-09-10T16:31:39.065Z,66.44
2022-09-10T16:34:11.227Z,66.28
2022-09-10T16:36:40.330Z,66.75
2022-09-10T16:39:12.198Z,66.96
2022-09-10T16:41:40.973Z,66.98
2022-09-10T16:44:10.982Z,66.66
2022-09-10T16:46:39.054Z,67.15
2022-09-10T16:49:08.470Z,67.70
2022-09-10T16:51:36.852Z,68.28
2022-09-10T16:54:06.720Z,68.11
2022-09-10T16:56:36.808Z,68.20
2022-09-10T16:59:07.414Z,68.15
2022-09-10T17:01:36.680Z,68.34
2022-09-10T17:04:07.154Z,68.28
2022-09-10T17:06:36.660Z,68.24
2022-09-10T17:09:04.530Z,68.64
2022-09-10T17:11:34.510Z,68.40
2022-09-10T17:14:04.442Z,68.59
2022-09-10T17:16:34.391Z,68.44
2022-09-10T17:19:06.950Z,68.44
2022-09-10T17:21:36.231Z,68.58
2022-09-10T17:24:05.892Z,68.71
2022-09-10T17:26:34.895Z,68.72
2022-09-10T17:29:04.879Z,69.04
2022-09-10T17:31:32.519Z,68.75
2022-09-10T17:34:00.991Z,68.72
2022-09-10T17:36:30.568Z,69.50
2022-09-10T17:38:59.127Z,70.15
2022-09-10T17:41:28.039Z,71.31
2022-09-10T17:43:56.538Z,73.35
2022-09-10T17:46:24.238Z,74.33
2022-09-10T17:48:53.424Z,75.86
2022-09-10T17:51:22.743Z,77.39
2022-09-10T17:53:52.914Z,78.26
2022-09-10T17:56:20.770Z,78.44
2022-09-10T17:58:49.380Z,79.92
2022-09-10T18:01:23.607Z,80.05
2022-09-10T18:03:51.619Z,80.73
2022-09-10T18:06:19.235Z,81.96
2022-09-10T18:08:46.815Z,81.73
2022-09-10T18:11:18.637Z,81.29
2022-09-10T18:13:49.191Z,81.41
2022-09-10T18:16:18.615Z,82.30
2022-09-10T18:18:52.999Z,83.07
2022-09-10T18:21:23.933Z,82.66
2022-09-10T18:23:52.884Z,83.84
2022-09-10T18:26:23.991Z,84.20
2022-09-10T18:28:57.273Z,86.14
2022-09-10T18:31:26.134Z,85.82
2022-09-10T18:33:55.648Z,87.36
2022-09-10T18:36:25.011Z,87.39
2022-09-10T18:38:52.788Z,86.40
2022-09-10T18:41:24.112Z,84.97
2022-09-10T18:43:53.546Z,84.38
2022-09-10T18:46:23.539Z,84.79
2022-09-10T18:48:52.046Z,84.56
2022-09-10T18:51:21.941Z,84.04
2022-09-10T18:53:52.883Z,84.20
2022-09-10T18:56:24.322Z,83.53
2022-09-10T18:58:53.453Z,84.64
2022-09-10T19:01:21.274Z,84.02
2022-09-10T19:03:49.937Z,84.24
2022-09-10T19:06:19.386Z,84.07
2022-09-10T19:08:48.760Z,84.38
2022-09-10T19:11:18.888Z,85.08
2022-09-10T19:13:51.282Z,85.92
2022-09-10T19:16:20.468Z,85.60
2022-09-10T19:18:51.930Z,86.21
2022-09-10T19:21:20.152Z,87.09
2022-09-10T19:23:49.378Z,87.10
2022-09-10T19:26:17.721Z,89.10
2022-09-10T19:28:46.312Z,88.92
2022-09-10T19:31:17.172Z,86.64
2022-09-10T19:33:44.850Z,85.76
2022-09-10T19:36:15.313Z,84.73
2022-09-10T19:38:43.313Z,84.07
2022-09-10T19:41:13.080Z,83.51
2022-09-10T19:43:42.015Z,83.92
2022-09-10T19:46:11.588Z,84.29
2022-09-10T19:48:41.106Z,85.83
2022-09-10T19:51:10.875Z,86.80
2022-09-10T19:53:40.090Z,87.51
2022-09-10T19:56:10.293Z,87.00
2022-09-10T19:58:41.561Z,87.89
2022-09-10T20:01:10.584Z,88.13
2022-09-10T20:03:40.662Z,88.52
2022-09-10T20:06:10.449Z,88.28
2022-09-10T20:08:38.823Z,88.12
2022-09-10T20:11:07.614Z,88.17
2022-09-10T20:13:35.969Z,88.12
2022-09-10T20:16:04.697Z,87.82
2022-09-10T20:18:34.122Z,86.71
2022-09-10T20:21:12.723Z,86.14
2022-09-10T20:23:40.797Z,85.97
2022-09-10T20:26:11.200Z,86.25
2022-09-10T20:28:39.440Z,85.70
2022-09-10T20:31:08.820Z,85.37
2022-09-10T20:33:37.460Z,85.34
2022-09-10T20:36:07.013Z,85.79
2022-09-10T20:38:36.059Z,85.02
2022-09-10T20:41:04.308Z,84.84
2022-09-10T20:43:32.315Z,85.06
2022-09-10T20:45:59.918Z,85.32
2022-09-10T20:48:28.051Z,85.16
2022-09-10T20:50:57.236Z,86.03
2022-09-10T20:53:25.557Z,85.69
2022-09-10T20:56:02.425Z,85.91
2022-09-10T20:58:30.078Z,85.73
2022-09-10T21:01:05.909Z,84.94
2022-09-10T21:03:33.900Z,83.99
2022-09-10T21:06:03.519Z,83.69
2022-09-10T21:08:32.353Z,83.34
2022-09-10T21:11:05.546Z,81.90
2022-09-10T21:13:34.256Z,81.48
2022-09-10T21:16:09.667Z,81.92
2022-09-10T21:18:37.477Z,82.08
2022-09-10T21:21:09.831Z,81.95
2022-09-10T21:23:42.621Z,82.70
2022-09-10T21:26:11.786Z,82.87
2022-09-10T21:28:39.759Z,83.48
2022-09-10T21:31:09.320Z,84.01
2022-09-10T21:33:37.688Z,83.06
2022-09-10T21:36:07.449Z,82.19
2022-09-10T21:38:35.981Z,82.85
2022-09-10T21:41:05.372Z,83.17
2022-09-10T21:43:36.013Z,83.45
2022-09-10T21:46:05.553Z,83.47
2022-09-10T21:48:35.807Z,82.44
2022-09-10T21:51:05.752Z,82.84
2022-09-10T21:53:34.710Z,82.35
2022-09-10T21:56:04.344Z,81.35
2022-09-10T21:58:35.701Z,81.64
2022-09-10T22:01:03.910Z,82.41
2022-09-10T22:03:33.581Z,81.87
2022-09-10T22:06:09.460Z,81.65
2022-09-10T22:08:38.293Z,81.50
2022-09-10T22:11:07.554Z,81.42
2022-09-10T22:13:37.765Z,81.96
2022-09-10T22:16:06.739Z,81.94
2022-09-10T22:18:35.146Z,82.00
2022-09-10T22:21:03.162Z,82.02
2022-09-10T22:23:31.490Z,81.91
2022-09-10T22:26:05.135Z,82.32
2022-09-10T22:28:34.957Z,82.37
2022-09-10T22:31:10.062Z,82.07
2022-09-10T22:33:39.391Z,81.80
2022-09-10T22:36:12.098Z,81.74
2022-09-10T22:38:39.918Z,81.54
2022-09-10T22:41:10.203Z,81.28
2022-09-10T22:43:38.835Z,80.98
2022-09-10T22:46:08.412Z,81.46
2022-09-10T22:48:37.579Z,81.20
2022-09-10T22:51:05.502Z,81.16
2022-09-10T22:53:33.149Z,80.55
2022-09-10T22:56:02.136Z,81.02
2022-09-10T22:58:30.106Z,80.58
2022-09-10T23:01:02.960Z,81.72
2022-09-10T23:03:32.061Z,82.39
2022-09-10T23:06:06.072Z,82.56
2022-09-10T23:08:35.799Z,82.10
2022-09-10T23:11:12.261Z,83.26
2022-09-10T23:13:40.790Z,82.74
2022-09-10T23:16:13.067Z,82.04
2022-09-10T23:18:43.503Z,82.13
2022-09-10T23:21:11.864Z,81.83
2022-09-10T23:23:39.563Z,81.76
2022-09-10T23:26:10.117Z,81.54
2022-09-10T23:28:38.026Z,81.20
2022-09-10T23:31:10.549Z,81.28
2022-09-10T23:33:38.205Z,81.03
2022-09-10T23:36:07.639Z,80.77
2022-09-10T23:38:36.000Z,80.14
2022-09-10T23:41:03.792Z,80.11
2022-09-10T23:43:31.455Z,80.59
2022-09-10T23:45:59.733Z,79.99
2022-09-10T23:48:28.227Z,79.90
2022-09-10T23:50:56.058Z,79.92
2022-09-10T23:53:26.033Z,79.96
2022-09-10T23:55:54.351Z,80.26
2022-09-10T23:58:23.454Z,80.58
